createdAt,value
2022-09-09T00:00:41.393Z,102329.78
2022-09-09T00:02:04.110Z,102322.50
2022-09-09T00:03:18.347Z,102327.00
2022-09-09T00:04:33.543Z,102333.41
2022-09-09T00:05:44.595Z,102334.28
2022-09-09T00:06:48.396Z,102326.47
2022-09-09T00:07:53.200Z,102338.28
2022-09-09T00:09:05.481Z,102331.19
2022-09-09T00:10:09.833Z,102332.03
2022-09-09T00:11:13.807Z,102331.31
2022-09-09T00:12:50.142Z,102331.56
2022-09-09T00:13:56.047Z,102339.69
2022-09-09T00:15:03.766Z,102331.00
2022-09-09T00:16:17.421Z,102339.28
2022-09-09T00:17:31.742Z,102333.88
2022-09-09T00:18:39.887Z,102336.41
2022-09-09T00:19:56.303Z,102340.13
2022-09-09T00:21:08.710Z,102339.13
2022-09-09T00:22:14.368Z,102342.84
2022-09-09T00:23:45.175Z,102332.72
2022-09-09T00:24:54.618Z,102341.69
2022-09-09T00:26:20.577Z,102337.28
2022-09-09T00:27:39.278Z,102326.09
2022-09-09T00:28:51.524Z,102337.13
2022-09-09T00:30:01.345Z,102336.59
2022-09-09T00:31:12.955Z,102331.31
2022-09-09T00:32:19.671Z,102339.59
2022-09-09T00:33:24.626Z,102329.78
2022-09-09T00:34:28.495Z,102325.13
2022-09-09T00:35:40.803Z,102334.47
2022-09-09T00:36:45.514Z,102337.03
2022-09-09T00:37:50.024Z,102319.13
2022-09-09T00:38:58.474Z,102325.81
2022-09-09T00:40:04.243Z,102334.75
2022-09-09T00:41:19.753Z,102330.06
2022-09-09T00:42:26.733Z,102327.22
2022-09-09T00:43:31.339Z,102333.75
2022-09-09T00:44:38.638Z,102319.00
2022-09-09T00:45:43.862Z,102328.34
2022-09-09T00:47:22.694Z,102331.50
2022-09-09T00:48:37.471Z,102310.72
2022-09-09T00:50:13.231Z,102333.59
2022-09-09T00:51:54.086Z,102333.28
2022-09-09T00:53:06.963Z,102332.59
2022-09-09T00:54:28.986Z,102326.78
2022-09-09T00:55:36.846Z,102319.09
2022-09-09T00:56:48.291Z,102314.44
2022-09-09T00:57:53.642Z,102323.66
2022-09-09T00:59:13.450Z,102309.34
2022-09-09T01:00:29.043Z,102312.44
2022-09-09T01:01:30.853Z,102320.94
2022-09-09T01:02:51.617Z,102321.25
2022-09-09T01:04:00.707Z,102305.63
2022-09-09T01:05:11.335Z,102317.72
2022-09-09T01:06:16.062Z,102311.91
2022-09-09T01:07:20.088Z,102313.03
2022-09-09T01:08:43.562Z,102312.75
2022-09-09T01:09:59.933Z,102312.81
2022-09-09T01:11:03.530Z,102317.72
2022-09-09T01:12:16.983Z,102319.53
2022-09-09T01:13:34.853Z,102320.25
2022-09-09T01:14:49.130Z,102324.66
2022-09-09T01:15:58.370Z,102319.53
2022-09-09T01:17:18.444Z,102312.13
2022-09-09T01:18:30.268Z,102313.13
2022-09-09T01:20:00.326Z,102314.13
2022-09-09T01:21:23.774Z,102310.00
2022-09-09T01:22:52.850Z,102315.25
2022-09-09T01:24:31.987Z,102309.56
2022-09-09T01:26:09.313Z,102307.25
2022-09-09T01:27:12.166Z,102295.22
2022-09-09T01:28:23.787Z,102309.44
2022-09-09T01:29:28.057Z,102316.69
2022-09-09T01:30:29.950Z,102309.03
2022-09-09T01:31:38.743Z,102315.75
2022-09-09T01:32:41.570Z,102308.34
2022-09-09T01:33:44.299Z,102305.94
2022-09-09T01:34:47.307Z,102300.53
2022-09-09T01:35:58.571Z,102305.94
2022-09-09T01:37:07.639Z,102300.22
2022-09-09T01:38:10.295Z,102307.63
2022-09-09T01:39:13.605Z,102310.50
2022-09-09T01:40:16.497Z,102286.81
2022-09-09T01:41:18.314Z,102285.50
2022-09-09T01:42:35.193Z,102303.94
2022-09-09T01:43:38.374Z,102311.19
2022-09-09T01:44:40.431Z,102292.19
2022-09-09T01:45:44.648Z,102305.22
2022-09-09T01:46:46.504Z,102314.19
2022-09-09T01:47:53.868Z,102281.94
2022-09-09T01:49:08.234Z,102299.53
2022-09-09T01:50:14.051Z,102285.91
2022-09-09T01:51:15.839Z,102299.53
2022-09-09T01:52:17.957Z,102284.50
2022-09-09T01:53:21.583Z,102296.41
2022-09-09T01:54:27.046Z,102283.34
2022-09-09T01:55:34.239Z,102294.41
2022-09-09T01:56:58.354Z,102297.38
2022-09-09T01:58:15.375Z,102298.91
2022-09-09T02:00:01.208Z,102296.53
2022-09-09T02:01:18.798Z,102289.81
2022-09-09T02:02:33.587Z,102300.31
2022-09-09T02:03:48.295Z,102295.22
2022-09-09T02:05:26.742Z,102287.09
2022-09-09T02:06:34.997Z,102300.31
2022-09-09T02:07:53.139Z,102303.31
2022-09-09T02:09:06.914Z,102308.91
2022-09-09T02:10:20.516Z,102291.13
2022-09-09T02:11:31.426Z,102299.09
2022-09-09T02:12:48.399Z,102269.00
2022-09-09T02:13:54.041Z,102303.09
2022-09-09T02:15:06.364Z,102284.91
2022-09-09T02:16:32.126Z,102294.13
2022-09-09T02:17:37.682Z,102282.78
2022-09-09T02:18:56.942Z,102276.66
2022-09-09T02:20:15.781Z,102259.09
2022-09-09T02:21:48.063Z,102283.78
2022-09-09T02:22:52.204Z,102293.13
2022-09-09T02:23:57.795Z,102278.94
2022-09-09T02:25:01.323Z,102290.88
2022-09-09T02:26:05.768Z,102289.19
2022-09-09T02:27:10.401Z,102253.59
2022-09-09T02:28:15.106Z,102285.91
2022-09-09T02:29:23.128Z,102287.75
2022-09-09T02:30:26.363Z,102285.78
2022-09-09T02:31:36.549Z,102265.34
2022-09-09T02:32:44.517Z,102286.63
2022-09-09T02:33:55.326Z,102265.59
2022-09-09T02:35:21.307Z,102284.16
2022-09-09T02:36:27.851Z,102282.59
2022-09-09T02:37:36.331Z,102282.78
2022-09-09T02:38:43.923Z,102272.69
2022-09-09T02:39:49.164Z,102279.06
2022-09-09T02:40:54.893Z,102284.59
2022-09-09T02:41:57.463Z,102280.38
2022-09-09T02:43:07.447Z,102261.91
2022-09-09T02:44:19.067Z,102271.53
2022-09-09T02:45:32.741Z,102261.31
2022-09-09T02:46:55.702Z,102275.50
2022-09-09T02:48:18.650Z,102270.78
2022-09-09T02:49:57.159Z,102277.59
2022-09-09T02:51:11.629Z,102282.00
2022-09-09T02:52:19.693Z,102277.91
2022-09-09T02:53:30.354Z,102274.09
2022-09-09T02:54:38.861Z,102280.06
2022-09-09T02:56:04.946Z,102282.59
2022-09-09T02:57:17.281Z,102269.84
2022-09-09T02:58:23.278Z,102285.47
2022-09-09T02:59:45.172Z,102273.78
2022-09-09T03:00:49.071Z,102274.09
2022-09-09T03:01:50.854Z,102273.41
2022-09-09T03:02:52.673Z,102276.41
2022-09-09T03:03:56.105Z,102274.69
2022-09-09T03:04:59.087Z,102270.13
2022-09-09T03:06:01.214Z,102273.00
2022-09-09T03:07:04.815Z,102268.19
2022-09-09T03:08:06.941Z,102273.00
2022-09-09T03:09:11.440Z,102250.88
2022-09-09T03:10:14.461Z,102261.09
2022-09-09T03:11:18.146Z,102259.63
2022-09-09T03:12:19.970Z,102265.91
2022-09-09T03:13:21.906Z,102260.50
2022-09-09T03:14:27.879Z,102254.13
2022-09-09T03:15:32.181Z,102267.59
2022-09-09T03:16:35.438Z,102249.41
2022-09-09T03:17:37.699Z,102246.19
2022-09-09T03:18:39.474Z,102261.50
2022-09-09T03:19:41.291Z,102255.09
2022-09-09T03:20:45.094Z,102255.09
2022-09-09T03:21:47.898Z,102253.38
2022-09-09T03:22:49.770Z,102243.19
2022-09-09T03:23:51.560Z,102234.69
2022-09-09T03:24:53.915Z,102256.91
2022-09-09T03:25:58.116Z,102247.19
2022-09-09T03:27:07.398Z,102264.91
2022-09-09T03:28:12.312Z,102254.09
2022-09-09T03:29:14.487Z,102249.13
2022-09-09T03:30:17.242Z,102251.69
2022-09-09T03:31:20.979Z,102249.81
2022-09-09T03:32:23.553Z,102257.09
2022-09-09T03:33:25.631Z,102253.69
2022-09-09T03:34:28.199Z,102254.38
2022-09-09T03:35:31.950Z,102257.09
2022-09-09T03:36:34.028Z,102248.13
2022-09-09T03:37:36.226Z,102251.69
2022-09-09T03:38:38.954Z,102248.13
2022-09-09T03:39:40.856Z,102230.28
2022-09-09T03:40:52.323Z,102249.81
2022-09-09T03:41:54.275Z,102235.22
2022-09-09T03:42:57.655Z,102249.81
2022-09-09T03:44:00.756Z,102241.47
2022-09-09T03:45:11.671Z,102237.38
2022-09-09T03:46:15.699Z,102250.50
2022-09-09T03:47:19.585Z,102253.38
2022-09-09T03:48:21.366Z,102246.88
2022-09-09T03:49:23.869Z,102249.13
2022-09-09T03:50:25.947Z,102251.28
2022-09-09T03:51:27.920Z,102240.78
2022-09-09T03:52:30.582Z,102247.19
2022-09-09T03:53:32.950Z,102241.78
2022-09-09T03:54:35.184Z,102252.69
2022-09-09T03:55:36.996Z,102238.06
2022-09-09T03:56:38.983Z,102254.69
2022-09-09T03:57:40.791Z,102257.41
2022-09-09T03:58:44.858Z,102246.59
2022-09-09T03:59:47.899Z,102256.53
2022-09-09T04:01:05.551Z,102242.56
2022-09-09T04:02:07.573Z,102244.59
2022-09-09T04:03:12.746Z,102229.53
2022-09-09T04:04:14.634Z,102240.88
2022-09-09T04:05:16.750Z,102237.38
2022-09-09T04:06:22.160Z,102248.28
2022-09-09T04:07:24.425Z,102243.88
2022-09-09T04:08:26.771Z,102236.38
2022-09-09T04:09:29.186Z,102232.81
2022-09-09T04:10:32.598Z,102252.00
2022-09-09T04:11:35.159Z,102235.50
2022-09-09T04:12:37.130Z,102240.78
2022-09-09T04:13:40.298Z,102248.59
2022-09-09T04:14:44.439Z,102240.09
2022-09-09T04:15:57.059Z,102246.59
2022-09-09T04:17:00.583Z,102244.59
2022-09-09T04:18:02.282Z,102249.28
2022-09-09T04:19:05.411Z,102237.22
2022-09-09T04:20:12.310Z,102230.50
2022-09-09T04:21:14.325Z,102234.94
2022-09-09T04:22:17.123Z,102251.13
2022-09-09T04:23:22.460Z,102242.31
2022-09-09T04:24:25.650Z,102239.47
2022-09-09T04:25:27.531Z,102247.59
2022-09-09T04:26:29.406Z,102246.88
2022-09-09T04:27:31.223Z,102249.41
2022-09-09T04:28:35.628Z,102249.41
2022-09-09T04:29:38.425Z,102251.13
2022-09-09T04:30:41.164Z,102228.72
2022-09-09T04:31:43.240Z,102246.88
2022-09-09T04:32:45.410Z,102248.59
2022-09-09T04:33:47.608Z,102246.00
2022-09-09T04:34:49.846Z,102246.00
2022-09-09T04:35:51.698Z,102238.06
2022-09-09T04:36:54.343Z,102241.63
2022-09-09T04:37:56.231Z,102239.78
2022-09-09T04:38:58.156Z,102242.47
2022-09-09T04:40:03.418Z,102240.78
2022-09-09T04:41:08.642Z,102221.00
2022-09-09T04:42:12.615Z,102235.50
2022-09-09T04:43:17.810Z,102242.31
2022-09-09T04:44:19.942Z,102226.00
2022-09-09T04:45:22.759Z,102245.88
2022-09-09T04:46:24.765Z,102241.63
2022-09-09T04:47:27.531Z,102240.63
2022-09-09T04:48:29.512Z,102233.69
2022-09-09T04:49:32.626Z,102229.97
2022-09-09T04:50:35.078Z,102230.41
2022-09-09T04:51:37.014Z,102225.41
2022-09-09T04:52:39.330Z,102228.72
2022-09-09T04:53:41.861Z,102232.97
2022-09-09T04:54:43.870Z,102234.94
2022-09-09T04:55:45.619Z,102231.50
2022-09-09T04:56:48.470Z,102239.91
2022-09-09T04:57:50.462Z,102226.09
2022-09-09T04:58:52.128Z,102221.31
2022-09-09T04:59:57.096Z,102240.78
2022-09-09T05:01:09.378Z,102241.63
2022-09-09T05:02:13.048Z,102243.31
2022-09-09T05:03:15.471Z,102236.38
2022-09-09T05:04:17.811Z,102240.63
2022-09-09T05:05:19.735Z,102237.50
2022-09-09T05:06:23.603Z,102241.78
2022-09-09T05:07:30.179Z,102244.19
2022-09-09T05:08:31.957Z,102246.00
2022-09-09T05:09:33.817Z,102234.94
2022-09-09T05:10:39.670Z,102229.53
2022-09-09T05:11:41.378Z,102249.41
2022-09-09T05:13:01.543Z,102226.72
2022-09-09T05:14:05.929Z,102247.69
2022-09-09T05:15:08.808Z,102243.28
2022-09-09T05:16:12.339Z,102251.09
2022-09-09T05:17:14.302Z,102248.22
2022-09-09T05:18:16.073Z,102227.91
2022-09-09T05:19:20.227Z,102245.06
2022-09-09T05:20:23.990Z,102249.16
2022-09-09T05:21:27.455Z,102246.16
2022-09-09T05:22:31.244Z,102250.44
2022-09-09T05:23:34.941Z,102247.25
2022-09-09T05:24:37.886Z,102237.75
2022-09-09T05:25:41.582Z,102242.97
2022-09-09T05:26:44.643Z,102243.50
2022-09-09T05:27:46.787Z,102233.84
2022-09-09T05:28:49.945Z,102237.63
2022-09-09T05:29:51.746Z,102245.97
2022-09-09T05:30:58.514Z,102236.63
2022-09-09T05:32:01.167Z,102229.59
2022-09-09T05:33:02.975Z,102247.63
2022-09-09T05:34:04.739Z,102243.63
2022-09-09T05:35:07.103Z,102248.03
2022-09-09T05:36:11.988Z,102236.50
2022-09-09T05:37:13.714Z,102247.09
2022-09-09T05:38:15.530Z,102247.81
2022-09-09T05:39:17.743Z,102243.78
2022-09-09T05:40:19.948Z,102248.03
2022-09-09T05:41:24.281Z,102235.38
2022-09-09T05:42:33.520Z,102245.56
2022-09-09T05:43:36.825Z,102224.91
2022-09-09T05:44:38.735Z,102234.81
2022-09-09T05:45:40.502Z,102232.41
2022-09-09T05:46:42.346Z,102217.19
2022-09-09T05:47:44.081Z,102235.03
2022-09-09T05:48:53.121Z,102234.72
2022-09-09T05:49:56.455Z,102227.13
2022-09-09T05:51:00.046Z,102235.25
2022-09-09T05:52:02.069Z,102234.91
2022-09-09T05:53:04.637Z,102231.19
2022-09-09T05:54:07.059Z,102229.38
2022-09-09T05:55:12.651Z,102235.16
2022-09-09T05:56:18.733Z,102226.19
2022-09-09T05:57:21.187Z,102225.88
2022-09-09T05:58:23.778Z,102223.47
2022-09-09T05:59:25.629Z,102226.56
2022-09-09T06:00:32.717Z,102214.63
2022-09-09T06:01:36.903Z,102220.00
2022-09-09T06:02:40.096Z,102218.75
2022-09-09T06:03:44.122Z,102225.97
2022-09-09T06:04:45.960Z,102232.06
2022-09-09T06:05:47.689Z,102214.03
2022-09-09T06:06:49.836Z,102235.47
2022-09-09T06:07:54.941Z,102223.75
2022-09-09T06:08:59.232Z,102222.75
2022-09-09T06:10:06.743Z,102220.59
2022-09-09T06:11:11.769Z,102204.75
2022-09-09T06:12:13.712Z,102229.56
2022-09-09T06:13:15.423Z,102200.31
2022-09-09T06:14:19.118Z,102234.97
2022-09-09T06:15:23.203Z,102229.41
2022-09-09T06:16:28.194Z,102224.00
2022-09-09T06:17:29.923Z,102212.94
2022-09-09T06:18:32.410Z,102229.25
2022-09-09T06:19:34.205Z,102214.81
2022-09-09T06:20:37.131Z,102234.69
2022-09-09T06:21:38.861Z,102218.34
2022-09-09T06:22:43.222Z,102229.94
2022-09-09T06:23:45.984Z,102221.81
2022-09-09T06:24:47.705Z,102227.06
2022-09-09T06:25:50.149Z,102232.66
2022-09-09T06:26:51.922Z,102228.06
2022-09-09T06:27:57.874Z,102224.22
2022-09-09T06:29:01.003Z,102225.38
2022-09-09T06:30:03.857Z,102220.28
2022-09-09T06:31:07.790Z,102226.06
2022-09-09T06:32:10.155Z,102223.19
2022-09-09T06:33:11.959Z,102229.63
2022-09-09T06:34:13.983Z,102212.84
2022-09-09T06:35:19.696Z,102226.59
2022-09-09T06:36:24.489Z,102228.44
2022-09-09T06:37:27.939Z,102227.44
2022-09-09T06:38:29.793Z,102223.72
2022-09-09T06:39:32.289Z,102229.13
2022-09-09T06:40:34.459Z,102215.22
2022-09-09T06:41:36.375Z,102229.13
2022-09-09T06:42:39.899Z,102212.69
2022-09-09T06:43:58.963Z,102227.66
2022-09-09T06:45:09.471Z,102231.88
2022-09-09T06:46:22.978Z,102228.47
2022-09-09T06:47:26.364Z,102233.75
2022-09-09T06:48:29.308Z,102233.91
2022-09-09T06:49:31.221Z,102233.91
2022-09-09T06:50:33.298Z,102219.16
2022-09-09T06:51:37.492Z,102231.38
2022-09-09T06:52:40.612Z,102234.75
2022-09-09T06:53:45.825Z,102238.31
2022-09-09T06:54:48.759Z,102213.53
2022-09-09T06:55:52.267Z,102226.09
2022-09-09T06:56:54.529Z,102235.44
2022-09-09T06:57:59.387Z,102238.00
2022-09-09T06:59:05.664Z,102233.59
2022-09-09T07:00:09.378Z,102226.78
2022-09-09T07:01:16.253Z,102237.00
2022-09-09T07:02:17.987Z,102212.88
2022-09-09T07:03:19.931Z,102226.78
2022-09-09T07:04:21.808Z,102241.56
2022-09-09T07:05:24.154Z,102237.28
2022-09-09T07:06:30.070Z,102243.09
2022-09-09T07:07:33.868Z,102248.34
2022-09-09T07:08:36.089Z,102253.78
2022-09-09T07:09:38.010Z,102234.44
2022-09-09T07:10:39.854Z,102240.00
2022-09-09T07:11:46.779Z,102252.94
2022-09-09T07:12:53.980Z,102245.50
2022-09-09T07:14:01.053Z,102250.59
2022-09-09T07:15:04.207Z,102243.28
2022-09-09T07:16:15.053Z,102248.56
2022-09-09T07:17:16.838Z,102233.78
2022-09-09T07:18:19.020Z,102244.16
2022-09-09T07:19:20.907Z,102251.28
2022-09-09T07:20:26.163Z,102238.38
2022-09-09T07:21:29.889Z,102233.97
2022-09-09T07:22:31.750Z,102245.84
2022-09-09T07:23:36.300Z,102220.00
2022-09-09T07:24:39.038Z,102251.09
2022-09-09T07:25:46.530Z,102258.53
2022-09-09T07:26:49.353Z,102236.69
2022-09-09T07:27:51.398Z,102259.06
2022-09-09T07:28:55.160Z,102251.97
2022-09-09T07:29:58.556Z,102246.38
2022-09-09T07:31:03.589Z,102250.09
2022-09-09T07:32:05.851Z,102258.06
2022-09-09T07:33:11.976Z,102246.88
2022-09-09T07:34:13.696Z,102251.63
2022-09-09T07:35:16.091Z,102243.47
2022-09-09T07:36:23.157Z,102238.88
2022-09-09T07:37:25.483Z,102256.03
2022-09-09T07:38:28.902Z,102247.91
2022-09-09T07:39:30.810Z,102248.25
2022-09-09T07:40:32.563Z,102249.94
2022-09-09T07:41:46.855Z,102251.63
2022-09-09T07:42:50.154Z,102250.63
2022-09-09T07:43:54.984Z,102252.16
2022-09-09T07:44:57.232Z,102251.78
2022-09-09T07:45:59.498Z,102251.31
2022-09-09T07:47:02.057Z,102255.88
2022-09-09T07:48:10.091Z,102252.16
2022-09-09T07:49:11.999Z,102246.72
2022-09-09T07:50:13.826Z,102256.72
2022-09-09T07:51:19.949Z,102244.19
2022-09-09T07:52:23.535Z,102247.91
2022-09-09T07:53:29.491Z,102253.88
2022-09-09T07:54:33.834Z,102250.16
2022-09-09T07:55:38.175Z,102244.72
2022-09-09T07:56:41.517Z,102251.16
2022-09-09T07:57:43.770Z,102254.72
2022-09-09T07:58:48.683Z,102236.53
2022-09-09T07:59:50.526Z,102242.50
2022-09-09T08:00:52.338Z,102253.69
2022-09-09T08:01:55.837Z,102253.69
2022-09-09T08:03:02.094Z,102237.22
2022-09-09T08:04:06.773Z,102245.88
2022-09-09T08:05:09.867Z,102244.19
2022-09-09T08:06:13.969Z,102248.13
2022-09-09T08:07:17.110Z,102238.09
2022-09-09T08:08:24.836Z,102250.66
2022-09-09T08:09:30.050Z,102253.56
2022-09-09T08:10:38.847Z,102246.94
2022-09-09T08:11:41.436Z,102249.84
2022-09-09T08:13:01.362Z,102245.25
2022-09-09T08:14:05.262Z,102246.50
2022-09-09T08:15:07.546Z,102242.19
2022-09-09T08:16:18.514Z,102252.22
2022-09-09T08:17:20.276Z,102253.75
2022-09-09T08:18:23.168Z,102240.31
2022-09-09T08:19:25.705Z,102254.91
2022-09-09T08:20:29.008Z,102252.22
2022-09-09T08:21:32.831Z,102237.75
2022-09-09T08:22:35.718Z,102247.63
2022-09-09T08:23:37.831Z,102255.75
2022-09-09T08:24:40.411Z,102253.91
2022-09-09T08:25:42.789Z,102251.34
2022-09-09T08:26:48.447Z,102249.50
2022-09-09T08:27:50.470Z,102245.63
2022-09-09T08:28:54.063Z,102245.25
2022-09-09T08:29:57.083Z,102240.69
2022-09-09T08:31:11.661Z,102245.47
2022-09-09T08:32:14.271Z,102240.50
2022-09-09T08:33:16.438Z,102244.91
2022-09-09T08:34:21.135Z,102240.69
2022-09-09T08:35:24.343Z,102237.44
2022-09-09T08:36:28.637Z,102253.63
2022-09-09T08:37:30.418Z,102254.31
2022-09-09T08:38:32.881Z,102243.53
2022-09-09T08:39:35.111Z,102245.47
2022-09-09T08:40:46.943Z,102253.44
2022-09-09T08:42:37.420Z,102251.78
2022-09-09T08:43:43.138Z,102234.81
2022-09-09T08:45:36.552Z,102248.75
2022-09-09T08:46:51.852Z,102248.94
2022-09-09T08:48:12.831Z,102247.25
2022-09-09T08:49:50.963Z,102250.63
2022-09-09T08:50:53.571Z,102249.81
2022-09-09T08:52:02.515Z,102232.09
2022-09-09T08:53:05.215Z,102254.19
2022-09-09T08:54:09.443Z,102247.88
2022-09-09T08:55:29.955Z,102249.59
2022-09-09T08:56:34.495Z,102235.16
2022-09-09T08:57:37.377Z,102245.34
2022-09-09T08:58:47.871Z,102227.53
2022-09-09T08:59:51.754Z,102245.66
2022-09-09T09:00:53.791Z,102243.63
2022-09-09T09:02:16.392Z,102246.53
2022-09-09T09:03:34.222Z,102234.50
2022-09-09T09:05:16.475Z,102247.25
2022-09-09T09:06:28.220Z,102253.19
2022-09-09T09:07:45.939Z,102245.41
2022-09-09T09:08:57.727Z,102246.41
2022-09-09T09:10:37.553Z,102231.97
2022-09-09T09:11:48.570Z,102247.78
2022-09-09T09:12:51.496Z,102245.03
2022-09-09T09:14:08.847Z,102250.13
2022-09-09T09:15:23.908Z,102241.81
2022-09-09T09:16:52.084Z,102242.69
2022-09-09T09:17:54.026Z,102241.47
2022-09-09T09:18:56.924Z,102245.53
2022-09-09T09:20:00.842Z,102242.16
2022-09-09T09:21:54.243Z,102244.53
2022-09-09T09:22:59.715Z,102236.94
2022-09-09T09:24:02.413Z,102245.41
2022-09-09T09:25:20.915Z,102243.69
2022-09-09T09:26:30.379Z,102235.03
2022-09-09T09:27:57.168Z,102244.38
2022-09-09T09:29:00.498Z,102241.34
2022-09-09T09:30:30.771Z,102238.09
2022-09-09T09:31:39.271Z,102238.97
2022-09-09T09:32:50.528Z,102226.75
2022-09-09T09:33:56.066Z,102246.06
2022-09-09T09:35:02.351Z,102244.06
2022-09-09T09:36:09.163Z,102246.91
2022-09-09T09:37:22.310Z,102239.78
2022-09-09T09:40:05.503Z,102237.97
2022-09-09T09:41:07.905Z,102239.66
2022-09-09T09:42:17.141Z,102243.88
2022-09-09T09:43:28.699Z,102227.44
2022-09-09T09:44:33.234Z,102245.56
2022-09-09T09:45:55.373Z,102243.72
2022-09-09T09:47:14.272Z,102240.50
2022-09-09T09:48:18.778Z,102212.84
2022-09-09T09:49:20.714Z,102235.41
2022-09-09T09:50:22.573Z,102236.59
2022-09-09T09:51:29.112Z,102211.63
2022-09-09T09:52:33.268Z,102232.19
2022-09-09T09:53:39.523Z,102229.81
2022-09-09T09:54:43.590Z,102233.88
2022-09-09T09:56:01.092Z,102236.59
2022-09-09T09:57:16.112Z,102236.94
2022-09-09T09:58:19.686Z,102211.66
2022-09-09T09:59:42.254Z,102228.47
2022-09-09T10:00:52.211Z,102220.50
2022-09-09T10:02:14.662Z,102216.94
2022-09-09T10:03:24.319Z,102215.94
2022-09-09T10:04:27.574Z,102221.38
2022-09-09T10:05:36.147Z,102221.69
2022-09-09T10:06:43.808Z,102223.41
2022-09-09T10:07:49.023Z,102210.66
2022-09-09T10:08:51.209Z,102215.59
2022-09-09T10:09:57.044Z,102205.41
2022-09-09T10:11:18.127Z,102216.97
2022-09-09T10:12:40.803Z,102208.63
2022-09-09T10:14:18.567Z,102212.56
2022-09-09T10:15:52.230Z,102193.09
2022-09-09T10:17:28.400Z,102214.59
2022-09-09T10:18:48.471Z,102204.97
2022-09-09T10:20:45.656Z,102204.63
2022-09-09T10:22:09.106Z,102204.44
2022-09-09T10:23:30.020Z,102201.91
2022-09-09T10:25:04.572Z,102205.13
2022-09-09T10:26:09.018Z,102201.03
2022-09-09T10:27:21.299Z,102199.00
2022-09-09T10:28:41.794Z,102200.69
2022-09-09T10:29:49.621Z,102201.56
2022-09-09T10:30:51.338Z,102206.13
2022-09-09T10:32:28.244Z,102200.19
2022-09-09T10:33:38.553Z,102190.19
2022-09-09T10:35:03.091Z,102198.66
2022-09-09T10:36:19.486Z,102199.19
2022-09-09T10:37:45.884Z,102199.88
2022-09-09T10:38:53.439Z,102189.84
2022-09-09T10:40:45.533Z,102201.56
2022-09-09T10:42:07.742Z,102202.75
2022-09-09T10:43:15.388Z,102207.69
2022-09-09T10:44:59.131Z,102206.81
2022-09-09T10:46:13.788Z,102206.66
2022-09-09T10:47:28.265Z,102201.38
2022-09-09T10:49:11.740Z,102203.78
2022-09-09T10:52:24.038Z,102206.19
2022-09-09T10:53:37.620Z,102197.31
2022-09-09T10:54:40.520Z,102203.09
2022-09-09T10:55:44.990Z,102204.63
2022-09-09T10:56:55.818Z,102206.66
2022-09-09T10:58:00.192Z,102192.91
2022-09-09T10:59:08.402Z,102183.41
2022-09-09T11:00:37.257Z,102195.47
2022-09-09T11:01:47.554Z,102196.31
2022-09-09T11:03:00.118Z,102189.16
2022-09-09T11:04:12.107Z,102192.56
2022-09-09T11:05:16.503Z,102192.56
2022-09-09T11:06:22.362Z,102200.22
2022-09-09T11:07:46.867Z,102189.53
2022-09-09T11:08:53.774Z,102200.56
2022-09-09T11:10:07.494Z,102184.28
2022-09-09T11:11:20.234Z,102197.84
2022-09-09T11:12:22.020Z,102199.69
2022-09-09T11:13:32.840Z,102195.47
2022-09-09T11:14:44.638Z,102194.47
2022-09-09T11:15:52.253Z,102193.78
2022-09-09T11:17:01.308Z,102187.16
2022-09-09T11:18:05.799Z,102192.56
2022-09-09T11:19:27.788Z,102192.25
2022-09-09T11:20:29.543Z,102192.25
2022-09-09T11:21:46.189Z,102188.69
2022-09-09T11:22:55.264Z,102188.34
2022-09-09T11:24:25.978Z,102182.25
2022-09-09T11:25:37.704Z,102191.06
2022-09-09T11:26:59.720Z,102193.28
2022-09-09T11:28:23.495Z,102190.88
2022-09-09T11:30:01.897Z,102186.16
2022-09-09T11:31:12.626Z,102189.22
2022-09-09T11:32:33.263Z,102194.13
2022-09-09T11:34:11.758Z,102184.63
2022-09-09T11:35:35.545Z,102178.91
2022-09-09T11:36:51.167Z,102170.22
2022-09-09T11:38:19.139Z,102180.41
2022-09-09T11:40:05.903Z,102176.03
2022-09-09T11:41:11.088Z,102183.31
2022-09-09T11:42:15.655Z,102177.34
2022-09-09T11:43:28.159Z,102176.84
2022-09-09T11:44:32.278Z,102179.53
2022-09-09T11:45:36.768Z,102180.75
2022-09-09T11:46:40.921Z,102167.81
2022-09-09T11:47:53.112Z,102165.50
2022-09-09T11:49:07.258Z,102169.56
2022-09-09T11:50:13.320Z,102169.56
2022-09-09T11:51:31.420Z,102157.34
2022-09-09T11:52:40.043Z,102163.25
2022-09-09T11:54:03.771Z,102150.91
2022-09-09T11:55:29.104Z,102171.44
2022-09-09T11:56:42.850Z,102167.56
2022-09-09T11:57:49.007Z,102172.31
2022-09-09T11:59:03.169Z,102172.47
2022-09-09T12:00:07.093Z,102174.34
2022-09-09T12:01:37.622Z,102161.41
2022-09-09T12:02:53.219Z,102171.28
2022-09-09T12:04:11.783Z,102159.75
2022-09-09T12:05:15.299Z,102168.56
2022-09-09T12:06:27.778Z,102170.59
2022-09-09T12:07:47.639Z,102168.72
2022-09-09T12:08:57.856Z,102163.97
2022-09-09T12:10:04.563Z,102155.66
2022-09-09T12:11:06.627Z,102161.44
2022-09-09T12:12:22.047Z,102170.59
2022-09-09T12:13:28.150Z,102164.16
2022-09-09T12:15:01.043Z,102160.59
2022-09-09T12:16:06.341Z,102158.06
2022-09-09T12:17:20.567Z,102157.38
2022-09-09T12:18:38.202Z,102153.66
2022-09-09T12:19:40.204Z,102143.78
2022-09-09T12:20:58.224Z,102155.69
2022-09-09T12:22:26.634Z,102154.66
2022-09-09T12:23:31.086Z,102156.84
2022-09-09T12:24:49.063Z,102153.66
2022-09-09T12:26:05.959Z,102151.78
2022-09-09T12:27:21.457Z,102158.88
2022-09-09T12:28:38.418Z,102153.31
2022-09-09T12:29:54.263Z,102149.91
2022-09-09T12:31:01.699Z,102154.47
2022-09-09T12:32:25.418Z,102154.13
2022-09-09T12:33:35.844Z,102149.72
2022-09-09T12:34:40.691Z,102148.22
2022-09-09T12:35:43.919Z,102150.25
2022-09-09T12:36:53.879Z,102149.41
2022-09-09T12:37:59.914Z,102138.22
2022-09-09T12:39:16.966Z,102143.81
2022-09-09T12:40:24.469Z,102141.09
2022-09-09T12:41:28.475Z,102126.66
2022-09-09T12:42:30.758Z,102145.00
2022-09-09T12:43:33.212Z,102142.13
2022-09-09T12:44:35.065Z,102128.22
2022-09-09T12:45:42.434Z,102132.78
2022-09-09T12:46:47.756Z,102124.78
2022-09-09T12:48:09.581Z,102131.25
2022-09-09T12:49:26.325Z,102135.00
2022-09-09T12:50:33.895Z,102135.34
2022-09-09T12:51:35.870Z,102134.47
2022-09-09T12:52:39.986Z,102133.63
2022-09-09T12:53:41.859Z,102128.56
2022-09-09T12:54:47.874Z,102135.69
2022-09-09T12:56:01.556Z,102134.47
2022-09-09T12:57:04.292Z,102115.66
2022-09-09T12:58:07.588Z,102133.63
2022-09-09T12:59:24.964Z,102132.63
2022-09-09T13:00:28.035Z,102122.44
2022-09-09T13:01:33.365Z,102130.91
2022-09-09T13:02:35.558Z,102135.34
2022-09-09T13:03:44.875Z,102127.69
2022-09-09T13:04:47.957Z,102111.75
2022-09-09T13:05:50.791Z,102121.09
2022-09-09T13:06:56.477Z,102112.78
2022-09-09T13:08:06.525Z,102123.97
2022-09-09T13:09:11.192Z,102120.06